Taos, NM

10:41 AM MDT on September 05, 2015 (GMT -0600)
Canon | | Change Station
CLOSE
Current Station
Personal Weather Station
Location: Taos, NM
Elevation: 7001 ft
Nearby Weather Stations

Elev 7001 ft 36.39 °N, 105.56 °W | Updated 1 minute ago

Overcast
Overcast
74.1 °F
Feels Like 77 °F
N
2.7
Wind Variable Wind from ENE

Today
High -- | Low -- °F
--% Chance of Precip.
Yesterday
High -- | Low -- °F
Precip. -- in
6:36 AM 7:24 PM
Waning Gibbous, 47% visible
Pressure 30.31 in
Visibility 10.0 miles
Clouds Few 2000 ft
Few 7000 ft
Heat Index 77 °F
Dew Point 55 °F
Humidity 51%
Rainfall 0.00 in
Snow Depth Not available.
UV 7 out of 12
Pollen 11.20 out of 12
Air Quality Not available.
Flu Activity Not available.
METAR KSKX 051635Z AUTO 00000KT 10SM FEW020 FEW070 18/09 A3031 RMK AO1
Pressure 30.31 in
Visibility 10.0 miles
Clouds Few 2000 ft
Few 7000 ft
Heat Index 77 °F
Dew Point 55 °F
Humidity 51%
Rainfall 0.00 in
Snow Depth Not available.
UV 7 out of 12
Pollen 11.20 out of 12
Air Quality Not available.
Flu Activity Not available.
METAR KSKX 051635Z AUTO 00000KT 10SM FEW020 FEW070 18/09 A3031 RMK AO1

10-Day Weather Forecast

×

Almanac

Astronomy

Sep. 05, 2015 Rise Set
Actual Time
Civil Twilight
Nautical Twilight
Astronomical Twilight
Moon
Length of Visible Light
Length of Day
Tomorrow will be .
, % of the Moon is Illuminated

Today's Extremes

State Highs State Lows

Community

WunderPhotos

Upload Photos

1,852,498 photos uploaded!

WunderBlogs® & News

Nearby

Air Quality

  Air Quality AQ Index Pollutant
Not available.

Snow Depth

Station Depth Elevation

Earthquake Activity

City Distance Mag. Time & Date
Minimum magnitude displayed is 2.5.

Coastal Water Temperatures

Place Temperature

Stations

Nearby Weather Stations

Station Location Temp. Windchill Dew Point Humidity Wind Precip. Elev Updated Type